Owensboro, KY

6:34 AM CDT on March 28, 2017 (GMT -0500)
Owensboro-Daviess County | | Change Station

Elev 404 ft 37.74 °N, 87.17 °W | Updated 38 minutes ago

Mostly Cloudy
Mostly Cloudy
55 °F
Feels Like 55 °F
N
7
Wind Variable Wind from NNW

Today
High -- | Low -- °F
--% Chance of Precip.
Yesterday
High -- | Low -- °F
Precip. -- in
Pressure 29.96 in
Visibility 6.0 miles
Clouds Mostly Cloudy 1000 ft
Mostly Cloudy 3500 ft
Dew Point 54 °F
Humidity 96%
Rainfall 0.00 in
Snow Depth Not available.
6:39 AM 7:08 PM
New Moon, 0% visible
METAR KOWB 281056Z 33006KT 6SM BR BKN010 BKN035 13/12 A2993 RMK AO2 SLP146 T01280122
Pressure 29.96 in
Visibility 6.0 miles
Clouds Mostly Cloudy 1000 ft
Mostly Cloudy 3500 ft
Dew Point 54 °F
Humidity 96%
Rainfall 0.00 in
Snow Depth Not available.
6:39 AM 7:08 PM
New Moon, 0% visible
METAR KOWB 281056Z 33006KT 6SM BR BKN010 BKN035 13/12 A2993 RMK AO2 SLP146 T01280122

Get Severe Weather Alerts

Thanks for signing up!

Be on the lookout for a verification email in your inbox.

You'll start receiving the daily forecast at 8 AM.

×

10-Day Weather Forecast

Almanac

Astronomy

Mar. 28, 2017 Rise Set
Actual Time
Civil Twilight
Nautical Twilight
Astronomical Twilight
Moon
Length of Visible Light
Length of Day
Tomorrow will be .
, % of the Moon is Illuminated

Today's Extremes

State Highs State Lows

Community

WunderPhotos

Upload Photos

1,962,540 photos uploaded!

WunderBlog® & News

Nearby

Air Quality

  Air Quality AQ Index Pollutant
Not available.

Snow Depth

Station Depth Elevation

Earthquake Activity

City Distance Mag. Time & Date
Minimum magnitude displayed is 2.5.

Earthquake Activity

City Distance Mag. Time & Date
Minimum magnitude displayed is 2.5.

Coastal Water Temperatures

Place Temperature

Stations

Nearby Weather Stations

Station Location Temp. Windchill Dew Point Humidity Wind Precip. Elev Updated Type
                   

Watches & Warnings

There are currently no watches in effect.